Time;durP1;ratioP1;P1;durP2;ratioP2;P2;SDS_P1;SDS_P2;PMS_P1;PMS_P2;Temp;Humidity;BMP_temperature;BMP_pressure;BME280_temperature;BME280_humidity;BME280_pressure;Samples;Min_cycle;Max_cycle;Signal;HPM_P1;HPM_P2
2022/04/05 00:01:31;;;;;;;15.82;3.20;;;;;;;;;;5107018;28;20044;-70
2022/04/05 00:03:58;;;;;;;11.75;1.92;;;;;;;;;;5088715;28;20066;-71
2022/04/05 00:06:24;;;;;;;15.65;2.45;;;;;;;;;;5086792;28;20070;-70
2022/04/05 00:08:50;;;;;;;15.30;2.47;;;;;;;;;;5087031;28;20048;-70
2022/04/05 00:11:16;;;;;;;20.60;2.80;;;;;;;;;;5086943;28;20107;-70
2022/04/05 00:13:42;;;;;;;15.93;2.80;;;;;;;;;;5087264;28;20123;-70
2022/04/05 00:16:09;;;;;;;24.67;4.00;;;;;;;;;;5100900;28;20046;-69
2022/04/05 00:18:37;;;;;;;18.40;2.42;;;;;;;;;;5107180;28;20071;-70
2022/04/05 00:21:03;;;;;;;12.93;2.33;;;;;;;;;;5106654;28;20044;-70
2022/04/05 00:23:29;;;;;;;14.98;2.13;;;;;;;;;;5106357;28;20123;-70
2022/04/05 00:25:55;;;;;;;18.73;3.70;;;;;;;;;;5106893;28;20451;-70
2022/04/05 00:28:21;;;;;;;16.02;2.75;;;;;;;;;;5107145;28;20056;-70
2022/04/05 00:30:47;;;;;;;20.48;2.88;;;;;;;;;;5106791;28;20044;-70
2022/04/05 00:33:13;;;;;;;16.90;2.55;;;;;;;;;;5104901;28;20048;-70
2022/04/05 00:35:40;;;;;;;18.63;2.78;;;;;;;;;;5107221;28;20095;-69
2022/04/05 00:38:07;;;;;;;16.77;3.15;;;;;;;;;;5106255;28;20044;-70
2022/04/05 00:40:33;;;;;;;16.98;2.95;;;;;;;;;;5105970;28;20669;-70
2022/04/05 00:43:00;;;;;;;17.70;2.92;;;;;;;;;;5102347;28;20116;-71
2022/04/05 00:45:26;;;;;;;27.75;3.92;;;;;;;;;;5086557;28;20036;-70
2022/04/05 00:47:54;;;;;;;19.15;2.85;;;;;;;;;;5086082;28;20453;-69
2022/04/05 00:50:20;;;;;;;;;;;;;;;;;;5087344;28;20051;-70
2022/04/05 00:52:46;;;;;;;24.92;3.17;;;;;;;;;;5089931;28;20387;-70
2022/04/05 00:55:12;;;;;;;22.92;3.20;;;;;;;;;;5103138;28;20565;-70
2022/04/05 00:57:40;;;;;;;15.90;3.03;;;;;;;;;;5090768;28;20049;-70
2022/04/05 01:00:07;;;;;;;22.17;3.28;;;;;;;;;;5084972;28;20048;-70
2022/04/05 01:02:37;;;;;;;22.08;2.38;;;;;;;;;;5086114;28;20498;-70
2022/04/05 01:05:04;;;;;;;24.90;2.92;;;;;;;;;;5091503;28;20288;-70
2022/04/05 01:07:32;;;;;;;17.90;3.50;;;;;;;;;;5105700;28;20519;-69
2022/04/05 01:09:59;;;;;;;18.65;2.97;;;;;;;;;;5106056;28;20062;-69
2022/04/05 01:12:25;;;;;;;18.52;1.77;;;;;;;;;;5106136;28;20043;-70
2022/04/05 01:14:52;;;;;;;14.13;3.00;;;;;;;;;;5102073;28;20083;-70
2022/04/05 01:17:18;;;;;;;17.80;3.05;;;;;;;;;;5085687;28;20133;-69
2022/04/05 01:19:47;;;;;;;7.45;1.42;;;;;;;;;;5085636;28;20048;-69
2022/04/05 01:22:13;;;;;;;8.85;2.42;;;;;;;;;;5084938;28;20105;-69
2022/04/05 01:24:39;;;;;;;17.67;3.50;;;;;;;;;;5087340;28;20070;-70
2022/04/05 01:27:16;;;;;;;11.32;2.58;;;;;;;;;;5105774;28;20103;-69
2022/04/05 01:29:42;;;;;;;18.08;1.80;;;;;;;;;;5105622;28;20050;-69
2022/04/05 01:32:09;;;;;;;10.98;1.67;;;;;;;;;;5105511;28;20524;-68
2022/04/05 01:34:36;;;;;;;24.13;3.97;;;;;;;;;;5104455;28;20074;-69
2022/04/05 01:37:03;;;;;;;12.25;1.50;;;;;;;;;;5084912;28;20100;-69
2022/04/05 01:39:31;;;;;;;12.73;2.65;;;;;;;;;;5085698;28;20066;-69
2022/04/05 01:42:01;;;;;;;15.15;1.80;;;;;;;;;;5084944;28;20053;-70
2022/04/05 01:44:29;;;;;;;21.58;2.97;;;;;;;;;;5086442;28;20129;-70
2022/04/05 01:46:56;;;;;;;;;;;;;;;;;;5085585;28;20102;-69
2022/04/05 01:49:23;;;;;;;18.13;2.30;;;;;;;;;;5085443;28;19920;-69
2022/04/05 01:51:49;;;;;;;19.73;2.50;;;;;;;;;;5084279;28;20094;-69
2022/04/05 01:54:16;;;;;;;18.75;2.60;;;;;;;;;;5085319;28;20050;-69
2022/04/05 01:56:47;;;;;;;26.30;3.60;;;;;;;;;;5083792;28;20044;-69
2022/04/05 01:59:14;;;;;;;23.95;3.05;;;;;;;;;;5085028;28;20135;-69
2022/04/05 02:01:41;;;;;;;21.42;2.40;;;;;;;;;;5084705;28;20190;-69
2022/04/05 02:04:08;;;;;;;26.02;3.67;;;;;;;;;;5085394;28;20086;-70
2022/04/05 02:06:34;;;;;;;20.20;3.10;;;;;;;;;;5104761;28;20184;-69
2022/04/05 02:09:00;;;;;;;19.20;3.00;;;;;;;;;;5105254;28;20048;-70
2022/04/05 02:11:26;;;;;;;22.42;3.65;;;;;;;;;;5104952;28;20047;-70
2022/04/05 02:13:52;;;;;;;25.00;3.47;;;;;;;;;;5104913;28;20040;-69
2022/04/05 02:16:18;;;;;;;20.40;2.70;;;;;;;;;;5104395;28;20412;-68
2022/04/05 02:18:45;;;;;;;28.80;3.88;;;;;;;;;;5103745;28;20338;-69
2022/04/05 02:21:11;;;;;;;11.05;2.13;;;;;;;;;;5104210;28;20047;-69
2022/04/05 02:23:37;;;;;;;25.80;2.25;;;;;;;;;;5103955;28;20050;-69
2022/04/05 02:26:03;;;;;;;18.73;2.67;;;;;;;;;;5104444;28;20052;-70
2022/04/05 02:28:29;;;;;;;18.95;2.75;;;;;;;;;;5104785;28;20633;-69
2022/04/05 02:30:56;;;;;;;23.35;3.95;;;;;;;;;;5104676;28;20051;-69
2022/04/05 02:33:22;;;;;;;16.70;2.75;;;;;;;;;;5104679;28;20054;-69
2022/04/05 02:35:48;;;;;;;29.15;3.22;;;;;;;;;;5086067;28;20504;-70
2022/04/05 02:38:15;;;;;;;23.77;2.90;;;;;;;;;;5083863;28;20212;-69
2022/04/05 02:40:41;;;;;;;26.17;2.80;;;;;;;;;;5084230;28;20044;-69
2022/04/05 02:43:07;;;;;;;25.83;3.17;;;;;;;;;;5084219;28;20113;-69
2022/04/05 02:45:33;;;;;;;22.25;3.72;;;;;;;;;;5084822;28;20055;-69
2022/04/05 02:48:00;;;;;;;24.05;3.13;;;;;;;;;;5083860;28;20040;-69
2022/04/05 02:50:26;;;;;;;20.25;2.78;;;;;;;;;;5084329;28;20108;-69
2022/04/05 02:52:52;;;;;;;22.48;3.15;;;;;;;;;;5083436;28;20047;-69
2022/04/05 02:55:18;;;;;;;19.65;3.10;;;;;;;;;;5099325;28;20040;-69
2022/04/05 02:57:46;;;;;;;28.33;4.18;;;;;;;;;;5104082;28;20103;-69
2022/04/05 03:00:13;;;;;;;26.13;3.13;;;;;;;;;;5104292;28;20526;-69
2022/04/05 03:02:40;;;;;;;30.20;4.10;;;;;;;;;;5104025;28;20044;-70
2022/04/05 03:05:06;;;;;;;23.80;3.38;;;;;;;;;;5090291;28;20042;-69
2022/04/05 03:07:36;;;;;;;15.77;2.15;;;;;;;;;;5103795;28;20067;-69
2022/04/05 03:10:09;;;;;;;30.20;4.10;;;;;;;;;;5104112;28;20432;-68
2022/04/05 03:12:35;;;;;;;19.35;1.95;;;;;;;;;;5104512;28;20128;-69
2022/04/05 03:15:02;;;;;;;27.40;4.70;;;;;;;;;;5102677;28;20511;-69
2022/04/05 03:17:28;;;;;;;27.58;4.22;;;;;;;;;;5083410;28;20037;-69
2022/04/05 03:19:54;;;;;;;24.33;3.70;;;;;;;;;;5084053;28;20052;-70
2022/04/05 03:22:20;;;;;;;25.70;2.90;;;;;;;;;;5083295;28;20052;-69
2022/04/05 03:24:47;;;;;;;27.70;4.03;;;;;;;;;;5099056;28;20104;-70
2022/04/05 03:27:13;;;;;;;24.65;2.83;;;;;;;;;;5104376;28;20096;-69
2022/04/05 03:29:39;;;;;;;18.70;2.65;;;;;;;;;;5103840;28;20523;-69
2022/04/05 03:32:05;;;;;;;22.70;3.60;;;;;;;;;;5103620;28;20146;-69
2022/04/05 03:34:31;;;;;;;27.15;3.08;;;;;;;;;;5103289;28;20097;-69
2022/04/05 03:36:57;;;;;;;24.90;3.90;;;;;;;;;;5094132;28;20036;-70
2022/04/05 03:39:24;;;;;;;14.98;2.05;;;;;;;;;;5083705;28;20093;-69
2022/04/05 03:41:50;;;;;;;24.88;2.90;;;;;;;;;;5083652;28;20055;-69
2022/04/05 03:44:16;;;;;;;15.85;3.25;;;;;;;;;;5095756;28;20515;-70
2022/04/05 03:46:43;;;;;;;18.60;2.70;;;;;;;;;;5103520;28;20075;-69
2022/04/05 03:49:09;;;;;;;24.40;2.90;;;;;;;;;;5103808;28;20603;-69
2022/04/05 03:51:35;;;;;;;11.48;2.28;;;;;;;;;;5103102;28;20096;-70
2022/04/05 03:54:01;;;;;;;17.60;2.67;;;;;;;;;;5093352;28;20087;-69
2022/04/05 03:56:27;;;;;;;25.30;3.38;;;;;;;;;;5083766;28;20076;-70
2022/04/05 03:58:53;;;;;;;22.38;4.40;;;;;;;;;;5083679;28;20055;-70
2022/04/05 04:01:19;;;;;;;18.42;3.30;;;;;;;;;;5083298;28;20112;-70
2022/04/05 04:03:45;;;;;;;18.20;2.63;;;;;;;;;;5090991;28;20071;-69
2022/04/05 04:06:11;;;;;;;18.00;2.30;;;;;;;;;;5103362;28;20088;-69
2022/04/05 04:08:37;;;;;;;22.30;4.18;;;;;;;;;;5104224;28;20060;-69
2022/04/05 04:11:04;;;;;;;28.13;3.33;;;;;;;;;;5103556;28;20056;-70
2022/04/05 04:13:30;;;;;;;16.27;2.35;;;;;;;;;;5097624;28;20037;-70
2022/04/05 04:15:56;;;;;;;24.27;2.83;;;;;;;;;;5083420;28;20123;-69
2022/04/05 04:18:23;;;;;;;21.88;2.65;;;;;;;;;;5086737;28;20056;-69
2022/04/05 04:20:49;;;;;;;20.92;3.92;;;;;;;;;;5104856;28;20051;-69
2022/04/05 04:23:15;;;;;;;21.30;2.92;;;;;;;;;;5103242;28;20076;-70
2022/04/05 04:25:41;;;;;;;19.95;3.17;;;;;;;;;;5086683;28;20048;-69
2022/04/05 04:28:08;;;;;;;25.48;4.95;;;;;;;;;;5086832;28;20044;-69
2022/04/05 04:30:34;;;;;;;16.95;3.80;;;;;;;;;;5086773;28;20048;-68
2022/04/05 04:33:01;;;;;;;26.73;3.92;;;;;;;;;;5087003;28;20239;-70
2022/04/05 04:35:27;;;;;;;32.05;3.35;;;;;;;;;;5106828;28;20099;-69
2022/04/05 04:37:54;;;;;;;21.92;3.15;;;;;;;;;;5106528;28;20123;-69
2022/04/05 04:40:20;;;;;;;27.45;3.33;;;;;;;;;;5106598;28;20387;-69
2022/04/05 04:42:46;;;;;;;24.65;2.45;;;;;;;;;;5106437;28;20060;-69
2022/04/05 04:45:12;;;;;;;16.65;2.50;;;;;;;;;;5104682;28;20059;-68
2022/04/05 04:47:39;;;;;;;18.75;3.28;;;;;;;;;;5106415;28;20568;-69
2022/04/05 04:50:06;;;;;;;23.33;3.47;;;;;;;;;;5106724;28;20036;-68
2022/04/05 04:52:32;;;;;;;24.40;3.83;;;;;;;;;;5106215;28;20044;-69
2022/04/05 04:54:58;;;;;;;25.90;2.95;;;;;;;;;;5089461;28;20131;-69
2022/04/05 04:57:25;;;;;;;28.92;4.55;;;;;;;;;;5086294;28;20093;-68
2022/04/05 04:59:52;;;;;;;12.70;2.20;;;;;;;;;;5086384;28;20056;-69
2022/04/05 05:02:18;;;;;;;25.85;4.55;;;;;;;;;;5085555;28;20138;-68
2022/04/05 05:04:44;;;;;;;21.63;3.88;;;;;;;;;;5100892;28;20096;-68
2022/04/05 05:07:10;;;;;;;22.70;4.50;;;;;;;;;;5105419;28;20044;-68
2022/04/05 05:09:36;;;;;;;20.30;3.20;;;;;;;;;;5105687;28;20043;-69
2022/04/05 05:12:02;;;;;;;21.70;3.40;;;;;;;;;;5106157;28;20082;-68
2022/04/05 05:14:30;;;;;;;24.35;3.78;;;;;;;;;;5106361;28;20522;-68
2022/04/05 05:16:56;;;;;;;24.25;3.20;;;;;;;;;;5105783;28;20047;-68
2022/04/05 05:19:22;;;;;;;24.27;4.38;;;;;;;;;;5087769;28;20136;-68
2022/04/05 05:21:48;;;;;;;29.55;3.35;;;;;;;;;;5084855;28;20051;-68
2022/04/05 05:24:15;;;;;;;19.05;3.75;;;;;;;;;;5085947;28;20048;-68
2022/04/05 05:26:41;;;;;;;18.63;3.55;;;;;;;;;;5083800;28;20630;-68
2022/04/05 05:29:07;;;;;;;26.42;3.92;;;;;;;;;;5101366;28;20054;-68
2022/04/05 05:31:33;;;;;;;20.52;2.90;;;;;;;;;;5105505;28;20480;-67
2022/04/05 05:33:59;;;;;;;18.77;2.72;;;;;;;;;;5105990;28;20115;-68
2022/04/05 05:36:25;;;;;;;29.10;3.25;;;;;;;;;;5102187;28;20060;-67
2022/04/05 05:38:51;;;;;;;24.60;3.28;;;;;;;;;;5089573;28;20125;-68
2022/04/05 05:41:17;;;;;;;21.45;2.97;;;;;;;;;;5084683;28;20132;-66
2022/04/05 05:43:45;;;;;;;17.50;2.22;;;;;;;;;;5092714;28;20078;-67
2022/04/05 05:46:15;;;;;;;15.93;3.13;;;;;;;;;;5095797;28;20095;-67
2022/04/05 05:48:42;;;;;;;26.45;3.17;;;;;;;;;;5097801;28;20036;-67
2022/04/05 05:51:09;;;;;;;19.15;3.92;;;;;;;;;;5084481;28;20048;-66
2022/04/05 05:53:35;;;;;;;25.88;4.07;;;;;;;;;;5091728;28;20103;-67
2022/04/05 05:56:01;;;;;;;23.20;4.35;;;;;;;;;;5101351;28;20044;-66
2022/04/05 05:58:29;;;;;;;27.88;4.68;;;;;;;;;;5099396;28;20044;-67
2022/04/05 06:00:55;;;;;;;16.85;3.97;;;;;;;;;;5104037;28;20524;-67
2022/04/05 06:03:21;;;;;;;30.23;3.70;;;;;;;;;;5105222;28;20040;-67
2022/04/05 06:05:47;;;;;;;14.63;3.15;;;;;;;;;;5095709;28;20498;-66
2022/04/05 06:08:14;;;;;;;18.95;3.72;;;;;;;;;;5090670;28;20100;-66
2022/04/05 06:10:40;;;;;;;27.75;3.47;;;;;;;;;;5102707;28;20108;-67
2022/04/05 06:13:06;;;;;;;25.23;3.58;;;;;;;;;;5089915;28;20044;-66
2022/04/05 06:15:33;;;;;;;22.05;3.10;;;;;;;;;;5090497;28;20040;-67
2022/04/05 06:17:59;;;;;;;15.73;2.60;;;;;;;;;;5095347;28;20080;-66
2022/04/05 06:20:25;;;;;;;14.07;2.33;;;;;;;;;;5095336;28;20032;-69
2022/04/05 06:22:53;;;;;;;16.02;3.25;;;;;;;;;;5094973;28;20403;-64
2022/04/05 06:25:20;;;;;;;24.25;3.63;;;;;;;;;;5090767;28;20079;-66
2022/04/05 06:27:47;;;;;;;21.55;3.28;;;;;;;;;;5094799;28;20041;-67
2022/04/05 06:30:14;;;;;;;26.50;3.80;;;;;;;;;;5088846;28;20048;-65
2022/04/05 06:32:40;;;;;;;15.82;2.38;;;;;;;;;;5088263;28;20127;-64
2022/04/05 06:35:08;;;;;;;21.38;3.38;;;;;;;;;;5084459;28;20071;-62
2022/04/05 06:37:36;;;;;;;15.38;2.13;;;;;;;;;;5091785;28;20040;-62
2022/04/05 06:40:03;;;;;;;19.27;3.30;;;;;;;;;;5082537;28;20423;-65
2022/04/05 06:42:29;;;;;;;14.40;2.67;;;;;;;;;;5101161;28;20036;-67
2022/04/05 06:44:55;;;;;;;16.65;2.55;;;;;;;;;;5100916;28;20546;-68
2022/04/05 06:47:22;;;;;;;20.50;2.95;;;;;;;;;;5097481;28;20146;-64
2022/04/05 06:49:48;;;;;;;12.73;2.03;;;;;;;;;;5090825;28;20037;-65
2022/04/05 06:52:14;;;;;;;30.42;5.63;;;;;;;;;;5094128;28;20076;-63
2022/04/05 06:54:40;;;;;;;24.88;4.25;;;;;;;;;;5102028;28;20051;-65
2022/04/05 06:57:06;;;;;;;19.58;3.35;;;;;;;;;;5100062;28;20421;-66
2022/04/05 06:59:32;;;;;;;21.48;4.25;;;;;;;;;;5101538;28;20048;-64
2022/04/05 07:01:59;;;;;;;18.52;2.88;;;;;;;;;;5097424;28;20424;-64
2022/04/05 07:04:56;;;;;;;20.25;2.78;;;;;;;;;;5088619;28;20037;-64
2022/04/05 07:07:22;;;;;;;14.70;2.83;;;;;;;;;;5087053;28;20048;-64
2022/04/05 07:09:48;;;;;;;16.73;2.80;;;;;;;;;;5092190;28;20072;-64
2022/04/05 07:12:14;;;;;;;18.70;3.35;;;;;;;;;;5096659;28;20041;-64
2022/04/05 07:14:40;;;;;;;15.38;2.85;;;;;;;;;;5083870;28;20066;-64
2022/04/05 07:17:06;;;;;;;16.65;3.08;;;;;;;;;;5095570;28;20127;-64
2022/04/05 07:19:33;;;;;;;14.50;3.53;;;;;;;;;;5090279;28;20092;-63
2022/04/05 07:21:59;;;;;;;15.95;2.70;;;;;;;;;;5085931;28;20418;-64
2022/04/05 07:24:26;;;;;;;18.23;3.00;;;;;;;;;;5093481;28;20051;-64
2022/04/05 07:26:54;;;;;;;19.27;2.97;;;;;;;;;;5085689;28;20064;-64
2022/04/05 07:29:20;;;;;;;16.20;2.72;;;;;;;;;;5092539;28;20283;-64
2022/04/05 07:31:46;;;;;;;18.13;3.08;;;;;;;;;;5097269;28;20047;-63
2022/04/05 07:34:13;;;;;;;14.15;2.30;;;;;;;;;;5085592;28;20116;-63
2022/04/05 07:36:39;;;;;;;18.60;2.65;;;;;;;;;;5094612;28;20261;-63
2022/04/05 07:39:05;;;;;;;12.30;2.15;;;;;;;;;;5088299;28;20527;-64
2022/04/05 07:41:31;;;;;;;10.93;2.55;;;;;;;;;;5097056;28;20085;-64
2022/04/05 07:43:57;;;;;;;18.88;2.90;;;;;;;;;;5087746;28;20056;-63
2022/04/05 07:46:24;;;;;;;12.00;2.28;;;;;;;;;;5081286;28;20072;-64
2022/04/05 07:48:50;;;;;;;16.13;3.28;;;;;;;;;;5086992;28;20036;-62
2022/04/05 07:51:17;;;;;;;12.43;2.60;;;;;;;;;;5090484;28;20100;-63
2022/04/05 07:53:44;;;;;;;8.25;2.17;;;;;;;;;;5097898;28;20036;-64
2022/04/05 07:56:12;;;;;;;13.38;2.58;;;;;;;;;;5092286;28;20048;-64
2022/04/05 07:58:39;;;;;;;13.45;3.60;;;;;;;;;;5104085;28;20048;-64
2022/04/05 08:01:05;;;;;;;17.58;2.83;;;;;;;;;;5090428;28;20051;-64
2022/04/05 08:03:31;;;;;;;19.38;3.55;;;;;;;;;;5086437;28;20072;-66
2022/04/05 08:05:57;;;;;;;12.93;3.03;;;;;;;;;;5086711;28;20110;-65
2022/04/05 08:08:23;;;;;;;15.20;2.45;;;;;;;;;;5095454;28;20121;-65
2022/04/05 08:10:49;;;;;;;14.82;2.42;;;;;;;;;;5086629;28;20040;-64
2022/04/05 08:13:15;;;;;;;14.88;2.95;;;;;;;;;;5093737;28;20077;-63
2022/04/05 08:15:43;;;;;;;12.98;3.65;;;;;;;;;;5097303;28;20064;-65
2022/04/05 08:18:09;;;;;;;16.35;3.03;;;;;;;;;;5101392;28;20454;-64
2022/04/05 08:20:36;;;;;;;11.63;3.10;;;;;;;;;;5097811;28;20042;-64
2022/04/05 08:23:06;;;;;;;11.38;2.55;;;;;;;;;;5101097;28;20048;-65
2022/04/05 08:25:32;;;;;;;15.52;3.65;;;;;;;;;;5100203;28;20041;-65
2022/04/05 08:27:58;;;;;;;16.20;2.88;;;;;;;;;;5086989;28;20037;-63
2022/04/05 08:30:24;;;;;;;15.00;2.90;;;;;;;;;;5090444;28;20412;-64
2022/04/05 08:32:50;;;;;;;15.68;2.70;;;;;;;;;;5091882;28;20033;-64
2022/04/05 08:35:18;;;;;;;15.27;2.78;;;;;;;;;;5092964;28;20041;-63
2022/04/05 08:37:45;;;;;;;12.77;3.03;;;;;;;;;;5104781;28;20229;-63
2022/04/05 08:40:12;;;;;;;9.82;2.28;;;;;;;;;;5092278;28;20044;-63
2022/04/05 08:42:41;;;;;;;11.60;3.15;;;;;;;;;;5093543;28;20043;-63
2022/04/05 08:45:10;;;;;;;13.15;2.15;;;;;;;;;;5100233;28;20136;-65
2022/04/05 08:47:39;;;;;;;13.18;3.22;;;;;;;;;;5104592;28;20052;-63
2022/04/05 08:50:06;;;;;;;18.45;2.63;;;;;;;;;;5101667;28;20039;-63
2022/04/05 08:52:32;;;;;;;15.05;2.80;;;;;;;;;;5104549;28;20055;-63
2022/04/05 08:54:58;;;;;;;15.38;3.55;;;;;;;;;;5085453;28;20040;-63
2022/04/05 08:57:24;;;;;;;17.02;3.15;;;;;;;;;;5100992;28;20217;-63
2022/04/05 08:59:50;;;;;;;7.90;2.13;;;;;;;;;;5097870;28;20060;-63
2022/04/05 09:02:24;;;;;;;8.80;2.20;;;;;;;;;;5097638;28;20119;-63
2022/04/05 09:04:50;;;;;;;9.20;2.92;;;;;;;;;;5094433;28;20066;-63
2022/04/05 09:07:29;;;;;;;16.38;3.58;;;;;;;;;;5095374;28;20068;-63
2022/04/05 09:10:07;;;;;;;17.17;3.10;;;;;;;;;;5100863;28;20119;-63
2022/04/05 09:12:33;;;;;;;;;;;;;;;;;;5092876;28;20431;-63
2022/04/05 09:14:59;;;;;;;15.98;2.50;;;;;;;;;;5103478;28;20068;-63
2022/04/05 09:17:25;;;;;;;9.63;2.33;;;;;;;;;;5094906;28;20036;-64
2022/04/05 09:19:52;;;;;;;8.30;2.67;;;;;;;;;;5089726;28;20043;-64
2022/04/05 09:22:32;;;;;;;11.02;2.75;;;;;;;;;;5089589;28;20369;-63
2022/04/05 09:25:03;;;;;;;9.48;2.95;;;;;;;;;;5092873;28;20040;-63
2022/04/05 09:27:42;;;;;;;9.65;2.28;;;;;;;;;;5098360;28;20054;-64
2022/04/05 09:30:12;;;;;;;11.38;3.42;;;;;;;;;;5096258;28;20048;-63
2022/04/05 09:32:41;;;;;;;18.33;4.00;;;;;;;;;;5099967;28;20048;-64
2022/04/05 09:35:08;;;;;;;9.75;2.88;;;;;;;;;;5097126;28;20052;-63
2022/04/05 09:37:38;;;;;;;10.52;2.38;;;;;;;;;;5100614;28;20036;-63
2022/04/05 09:40:20;;;;;;;10.80;3.03;;;;;;;;;;5088942;28;20056;-63
2022/04/05 09:43:05;;;;;;;11.45;2.33;;;;;;;;;;5099512;28;20075;-63
2022/04/05 09:45:43;;;;;;;9.85;2.55;;;;;;;;;;5101907;28;20040;-64
2022/04/05 09:48:09;;;;;;;12.40;3.08;;;;;;;;;;5096211;28;20087;-65
2022/04/05 09:50:54;;;;;;;17.98;3.28;;;;;;;;;;5093780;28;20089;-64
2022/04/05 09:53:20;;;;;;;14.18;3.55;;;;;;;;;;5093557;28;20036;-63
2022/04/05 09:55:46;;;;;;;17.13;4.13;;;;;;;;;;5092981;28;20037;-64
2022/04/05 09:58:12;;;;;;;16.85;3.55;;;;;;;;;;5089763;28;20059;-63
2022/04/05 10:00:38;;;;;;;19.25;4.53;;;;;;;;;;5088819;28;20100;-64
2022/04/05 10:03:06;;;;;;;16.17;4.78;;;;;;;;;;5094944;28;20059;-63
2022/04/05 10:05:32;;;;;;;;;;;;;;;;;;5101784;28;20104;-64
2022/04/05 10:07:59;;;;;;;14.80;3.53;;;;;;;;;;5084467;28;19920;-64
2022/04/05 10:10:25;;;;;;;12.73;4.18;;;;;;;;;;5089244;28;20496;-65
2022/04/05 10:12:52;;;;;;;14.63;3.85;;;;;;;;;;5104345;28;20048;-65
2022/04/05 10:15:21;;;;;;;8.07;4.47;;;;;;;;;;5105324;28;20122;-65
2022/04/05 10:17:47;;;;;;;10.77;3.88;;;;;;;;;;5104953;28;20290;-65
2022/04/05 10:20:13;;;;;;;8.50;3.28;;;;;;;;;;5092635;28;20052;-66
2022/04/05 10:22:43;;;;;;;8.73;3.22;;;;;;;;;;5084031;28;20054;-66
2022/04/05 10:25:09;;;;;;;13.88;3.97;;;;;;;;;;5088672;28;20041;-65
2022/04/05 10:27:36;;;;;;;5.90;2.50;;;;;;;;;;5098772;28;20561;-66
2022/04/05 10:30:02;;;;;;;6.75;2.30;;;;;;;;;;5100598;28;20130;-66
2022/04/05 10:32:28;;;;;;;10.95;2.58;;;;;;;;;;5103536;28;20051;-65
2022/04/05 10:35:06;;;;;;;6.38;2.28;;;;;;;;;;5102606;28;20040;-66
2022/04/05 10:37:34;;;;;;;5.78;2.75;;;;;;;;;;5087949;28;20044;-66
2022/04/05 10:40:00;;;;;;;4.72;2.90;;;;;;;;;;5098773;28;20040;-66
2022/04/05 10:42:34;;;;;;;3.85;1.70;;;;;;;;;;5103353;28;20108;-66
2022/04/05 10:45:17;;;;;;;4.45;1.58;;;;;;;;;;5093296;28;20055;-66
2022/04/05 10:48:02;;;;;;;3.67;1.45;;;;;;;;;;5091777;28;20056;-66
2022/04/05 10:50:28;;;;;;;2.80;1.35;;;;;;;;;;5084401;28;20044;-66
2022/04/05 10:53:11;;;;;;;5.85;1.75;;;;;;;;;;5084001;28;20046;-66
2022/04/05 10:55:56;;;;;;;6.53;1.98;;;;;;;;;;5097305;28;20044;-66
2022/04/05 10:58:22;;;;;;;3.67;1.50;;;;;;;;;;5089538;28;20068;-65
2022/04/05 11:00:48;;;;;;;2.88;1.40;;;;;;;;;;5089216;28;20047;-66
2022/04/05 11:03:14;;;;;;;2.00;1.23;;;;;;;;;;5086199;28;20052;-65
2022/04/05 11:05:42;;;;;;;4.35;1.40;;;;;;;;;;5090737;28;20128;-66
2022/04/05 11:08:12;;;;;;;4.40;1.70;;;;;;;;;;5100763;28;20399;-65
2022/04/05 11:10:38;;;;;;;4.22;1.83;;;;;;;;;;5090476;28;20045;-66
2022/04/05 11:13:11;;;;;;;7.68;1.70;;;;;;;;;;5095273;28;20048;-66
2022/04/05 11:15:42;;;;;;;2.58;1.65;;;;;;;;;;5100449;28;20055;-66
2022/04/05 11:18:09;;;;;;;5.05;1.92;;;;;;;;;;5083555;28;20037;-66
2022/04/05 11:20:38;;;;;;;4.60;2.17;;;;;;;;;;5093957;28;20059;-67
2022/04/05 11:23:05;;;;;;;6.03;2.30;;;;;;;;;;5097879;28;20088;-66
2022/04/05 11:25:31;;;;;;;4.97;1.80;;;;;;;;;;5088246;28;20071;-66
2022/04/05 11:28:17;;;;;;;4.13;1.75;;;;;;;;;;5108198;28;20048;-66
2022/04/05 11:30:52;;;;;;;6.25;2.30;;;;;;;;;;5094350;28;20040;-66
2022/04/05 11:33:18;;;;;;;4.78;2.05;;;;;;;;;;5089226;28;20047;-66
2022/04/05 11:35:52;;;;;;;4.38;2.25;;;;;;;;;;5096061;28;20048;-66
2022/04/05 11:38:18;;;;;;;7.93;2.17;;;;;;;;;;5094008;28;20059;-65
2022/04/05 11:40:52;;;;;;;5.72;2.00;;;;;;;;;;5087669;28;20048;-65
2022/04/05 11:43:20;;;;;;;2.65;1.73;;;;;;;;;;5089684;28;20060;-66
2022/04/05 11:45:46;;;;;;;2.03;1.77;;;;;;;;;;5089104;28;20045;-66
2022/04/05 11:48:17;;;;;;;5.53;2.35;;;;;;;;;;5095370;28;20185;-65
2022/04/05 11:50:43;;;;;;;3.25;2.65;;;;;;;;;;5099905;28;20060;-65
2022/04/05 11:53:21;;;;;;;3.83;1.95;;;;;;;;;;5088839;28;20104;-65
2022/04/05 11:56:03;;;;;;;6.50;2.92;;;;;;;;;;5095121;28;20055;-66
2022/04/05 11:58:30;;;;;;;4.45;2.20;;;;;;;;;;5101770;28;20112;-65
2022/04/05 12:00:58;;;;;;;5.88;2.28;;;;;;;;;;5092458;28;20041;-66
2022/04/05 12:03:24;;;;;;;2.63;2.08;;;;;;;;;;5099872;28;20062;-65
2022/04/05 12:05:50;;;;;;;3.25;2.22;;;;;;;;;;5095342;28;20098;-65
2022/04/05 12:08:16;;;;;;;3.47;2.42;;;;;;;;;;5103977;28;20047;-65
2022/04/05 12:10:43;;;;;;;2.38;2.03;;;;;;;;;;5090852;28;20032;-67
2022/04/05 12:13:10;;;;;;;2.03;1.70;;;;;;;;;;5104079;28;20466;-65
2022/04/05 12:15:37;;;;;;;3.42;1.80;;;;;;;;;;5099118;28;20063;-65
2022/04/05 12:18:19;;;;;;;1.80;1.50;;;;;;;;;;5089118;28;20036;-65
2022/04/05 12:20:55;;;;;;;5.07;1.95;;;;;;;;;;5094774;28;20306;-66
2022/04/05 12:23:23;;;;;;;1.73;1.27;;;;;;;;;;5093990;28;20070;-66
2022/04/05 12:26:23;;;;;;;2.67;1.60;;;;;;;;;;5097048;28;20044;-68
2022/04/05 12:28:53;;;;;;;3.17;1.75;;;;;;;;;;5035470;28;20055;-66
2022/04/05 12:31:23;;;;;;;3.05;1.63;;;;;;;;;;5039882;28;20247;-66
2022/04/05 12:33:56;;;;;;;3.03;2.00;;;;;;;;;;5036514;28;20056;-66
2022/04/05 12:36:23;;;;;;;9.40;2.33;;;;;;;;;;5037019;28;20050;-65
2022/04/05 12:38:50;;;;;;;2.30;1.90;;;;;;;;;;5040869;28;20045;-66
2022/04/05 12:41:16;;;;;;;2.05;1.85;;;;;;;;;;5039523;28;20370;-66
2022/04/05 12:43:43;;;;;;;1.95;1.67;;;;;;;;;;5042588;28;20053;-65
2022/04/05 12:46:13;;;;;;;2.67;1.75;;;;;;;;;;5042354;28;20058;-65
2022/04/05 12:48:41;;;;;;;2.03;1.67;;;;;;;;;;5038389;28;20136;-65
2022/04/05 12:51:07;;;;;;;;;;;;;;;;;;5042159;28;20061;-64
2022/04/05 12:53:37;;;;;;;2.10;1.90;;;;;;;;;;5041722;28;19921;-64
2022/04/05 12:56:08;;;;;;;2.08;1.88;;;;;;;;;;5042341;28;20623;-65
2022/04/05 12:58:38;;;;;;;3.00;1.75;;;;;;;;;;5038728;28;20056;-65
2022/04/05 13:01:21;;;;;;;3.35;1.83;;;;;;;;;;5038475;28;20052;-65
2022/04/05 13:03:47;;;;;;;2.92;2.55;;;;;;;;;;5052521;28;20048;-65
2022/04/05 13:06:24;;;;;;;6.28;2.60;;;;;;;;;;5096457;28;20058;-66
2022/04/05 13:08:52;;;;;;;4.53;3.30;;;;;;;;;;5101143;28;20036;-67
2022/04/05 13:11:18;;;;;;;;;;;;;;;;;;5097816;28;20059;-66
2022/04/05 13:13:44;;;;;;;7.20;3.60;;;;;;;;;;5096986;28;19920;-67
2022/04/05 13:16:11;;;;;;;6.03;3.25;;;;;;;;;;5091092;28;20051;-66
2022/04/05 13:18:37;;;;;;;6.60;3.35;;;;;;;;;;5089483;28;20061;-67
2022/04/05 13:21:04;;;;;;;9.27;4.50;;;;;;;;;;5090019;28;20048;-67
2022/04/05 13:23:31;;;;;;;7.47;4.35;;;;;;;;;;5087455;28;20040;-67
2022/04/05 13:25:58;;;;;;;7.38;5.15;;;;;;;;;;5094206;28;20044;-67
2022/04/05 13:28:37;;;;;;;10.93;5.72;;;;;;;;;;5089291;28;20127;-68
2022/04/05 13:31:07;;;;;;;7.05;4.65;;;;;;;;;;5090194;28;20048;-67
2022/04/05 13:33:33;;;;;;;6.82;4.65;;;;;;;;;;5090617;28;20051;-67
2022/04/05 13:35:59;;;;;;;17.48;6.97;;;;;;;;;;5096774;28;20040;-66
2022/04/05 13:38:26;;;;;;;11.95;5.75;;;;;;;;;;5090485;28;20054;-66
2022/04/05 13:40:54;;;;;;;14.38;5.90;;;;;;;;;;5093212;28;20087;-68
2022/04/05 13:43:20;;;;;;;14.10;6.35;;;;;;;;;;5103749;28;20369;-67
2022/04/05 13:45:46;;;;;;;14.00;6.72;;;;;;;;;;5092012;28;20036;-67
2022/04/05 13:48:12;;;;;;;11.15;5.85;;;;;;;;;;5086461;28;20115;-67
2022/04/05 13:50:38;;;;;;;12.13;5.53;;;;;;;;;;5098455;28;20527;-68
2022/04/05 13:53:05;;;;;;;11.10;6.05;;;;;;;;;;5089028;28;20131;-67
2022/04/05 13:55:31;;;;;;;13.00;6.55;;;;;;;;;;5092006;28;20041;-67
2022/04/05 13:57:57;;;;;;;12.95;6.53;;;;;;;;;;5093565;28;20163;-66
2022/04/05 14:00:23;;;;;;;12.02;6.15;;;;;;;;;;5093712;28;20044;-67
2022/04/05 14:02:52;;;;;;;17.38;7.60;;;;;;;;;;5091939;28;20048;-66
2022/04/05 14:05:19;;;;;;;19.45;8.43;;;;;;;;;;5086292;28;20507;-67
2022/04/05 14:07:45;;;;;;;18.17;8.52;;;;;;;;;;5092416;28;20062;-66
2022/04/05 14:10:14;;;;;;;15.48;6.85;;;;;;;;;;5086922;28;20135;-66
2022/04/05 14:12:40;;;;;;;23.13;10.07;;;;;;;;;;5091556;28;20040;-67
2022/04/05 14:15:07;;;;;;;27.05;10.07;;;;;;;;;;5086695;28;20122;-66
2022/04/05 14:17:37;;;;;;;16.45;8.75;;;;;;;;;;5092721;28;20127;-66
2022/04/05 14:20:06;;;;;;;17.60;9.15;;;;;;;;;;5097130;28;20298;-67
2022/04/05 14:22:32;;;;;;;21.42;9.35;;;;;;;;;;5089938;28;20119;-67
2022/04/05 14:24:59;;;;;;;24.88;9.75;;;;;;;;;;5096179;28;20066;-66
2022/04/05 14:27:25;;;;;;;15.50;8.77;;;;;;;;;;5092481;28;20073;-67
2022/04/05 14:29:52;;;;;;;19.70;8.05;;;;;;;;;;5096544;28;20043;-66
2022/04/05 14:32:18;;;;;;;23.45;8.88;;;;;;;;;;5095843;28;20040;-67
2022/04/05 14:34:44;;;;;;;22.63;10.00;;;;;;;;;;5096075;28;20040;-67
2022/04/05 14:37:10;;;;;;;21.27;8.18;;;;;;;;;;5088837;28;20060;-68
2022/04/05 14:39:36;;;;;;;20.13;8.95;;;;;;;;;;5085482;28;20067;-67